Time;durP1;ratioP1;P1;durP2;ratioP2;P2;SDS_P1;SDS_P2;PMS_P1;PMS_P2;Temp;Humidity;BMP_temperature;BMP_pressure;BME280_temperature;BME280_humidity;BME280_pressure;Samples;Min_cycle;Max_cycle;Signal;HPM_P1;HPM_P2
2024/01/11 00:15:05;;;;;;;7.18;3.20;;;;;;;11.70;51.00;96846.13;6155803;23;20070;-26
2024/01/11 00:28:25;;;;;;;6.70;3.63;;;;;;;11.48;51.29;96831.47;6155754;23;20340;-27
2024/01/11 00:44:17;;;;;;;6.22;3.30;;;;;;;11.45;51.22;96810.59;6154002;23;20375;-27
2024/01/11 01:00:13;;;;;;;4.70;3.05;;;;;;;11.62;50.51;96808.66;6155156;23;20083;-27
2024/01/11 01:16:05;;;;;;;4.20;2.60;;;;;;;11.62;50.67;96819.53;6158270;23;20020;-27
2024/01/11 01:29:06;;;;;;;5.60;3.50;;;;;;;11.55;50.00;96803.38;6158792;23;20012;-28
2024/01/11 01:44:59;;;;;;;3.63;2.38;;;;;;;11.42;50.64;96800.56;6157067;23;20051;-27
2024/01/11 02:00:53;;;;;;;4.35;2.85;;;;;;;11.16;50.83;96803.06;6157972;23;20019;-27
2024/01/11 02:16:46;;;;;;;4.10;2.70;;;;;;;11.31;50.29;96800.03;6156987;23;20347;-27
2024/01/11 02:29:50;;;;;;;7.45;2.40;;;;;;;11.12;50.57;96796.97;6156410;23;20020;-27
2024/01/11 02:45:42;;;;;;;3.78;2.15;;;;;;;11.26;49.77;96792.38;6155168;23;20031;-27
2024/01/11 03:01:35;;;;;;;4.03;2.08;;;;;;;11.28;49.96;96777.22;6156080;23;20016;-27
2024/01/11 03:17:27;;;;;;;2.83;2.08;;;;;;;11.21;49.93;96780.09;6156001;23;20048;-27
2024/01/11 03:30:35;;;;;;;3.50;2.22;;;;;;;11.11;50.23;96768.28;6156413;23;20015;-27
2024/01/11 03:46:27;;;;;;;3.08;2.22;;;;;;;11.24;49.47;96759.50;6153987;23;20115;-27
2024/01/11 04:02:20;;;;;;;2.63;1.70;;;;;;;11.20;49.58;96748.69;6155694;23;20414;-27
2024/01/11 04:04:45;;;;;;;3.08;1.90;;;;;;;11.17;49.69;96746.81;6155743;23;20008;-27
2024/01/11 04:07:10;;;;;;;3.83;1.80;;;;;;;10.96;49.95;96750.00;6155904;23;20001;-27
2024/01/11 04:16:19;;;;;;;2.60;1.90;;;;;;;11.18;49.48;96753.00;6155833;23;20364;-27
2024/01/11 04:32:11;;;;;;;2.72;1.70;;;;;;;11.22;49.42;96753.72;6155248;23;20064;-27
2024/01/11 04:48:03;;;;;;;2.53;1.90;;;;;;;11.20;49.36;96748.69;6154186;23;20028;-27
2024/01/11 05:17:22;;;;;;;10.63;5.75;;;;;;;11.08;49.45;96758.28;6155340;23;20028;-27
2024/01/11 05:33:15;;;;;;;3.10;1.50;;;;;;;11.04;49.73;96754.09;6155124;23;20020;-27
2024/01/11 05:35:40;;;;;;;2.10;1.40;;;;;;;11.15;49.26;96741.03;6155591;23;20009;-27
2024/01/11 05:38:05;;;;;;;1.80;1.33;;;;;;;11.19;49.21;96741.75;6155521;23;20005;-27
2024/01/11 05:47:14;;;;;;;1.48;1.00;;;;;;;11.05;49.44;96733.91;6154142;23;20048;-27
2024/01/11 06:03:06;;;;;;;2.35;1.30;;;;;;;10.95;49.55;96730.25;6157013;23;20390;-27
2024/01/11 06:05:32;;;;;;;2.85;1.00;;;;;;;10.92;49.76;96731.09;6157046;23;20032;-27
2024/01/11 06:18:04;;;;;;;2.03;1.17;;;;;;;10.96;49.55;96731.78;6156591;23;20021;-27
2024/01/11 06:33:56;;;;;;;2.40;1.20;;;;;;;10.73;49.72;96748.19;6156381;23;20068;-27
2024/01/11 06:36:22;;;;;;;4.22;1.10;;;;;;;10.83;50.01;96741.75;6156469;23;20368;-27
2024/01/11 06:48:52;;;;;;;2.95;1.08;;;;;;;10.76;49.58;96741.88;6155191;23;20028;-27
2024/01/11 07:04:45;;;;;;;2.28;1.50;;;;;;;10.94;49.32;96739.56;6156058;23;20036;-28
2024/01/11 07:34:04;;;;;;;2.05;1.45;;;;;;;10.69;50.08;96745.53;6155777;23;20064;-27
2024/01/11 07:49:57;;;;;;;3.22;1.40;;;;;;;10.94;49.87;96752.38;6154688;23;20398;-27
2024/01/11 08:19:16;;;;;;;2.20;1.30;;;;;;;10.97;49.83;96754.25;6155644;23;20503;-27
2024/01/11 08:35:11;;;;;;;1.85;1.50;;;;;;;11.02;50.25;96751.03;6155183;23;20060;-27
2024/01/11 08:51:03;;;;;;;3.28;1.58;;;;;;;11.19;49.85;96751.84;6154487;23;20032;-27
2024/01/11 09:04:29;;;;;;;3.05;1.52;;;;;;;11.32;49.65;96741.84;6155178;23;20044;-27
2024/01/11 09:20:22;;;;;;;1.48;1.13;;;;;;;21.64;28.70;96736.66;6155205;23;20016;-28
2024/01/11 09:22:47;;;;;;;1.73;1.30;;;;;;;22.28;27.37;96736.00;6155347;23;20006;-27
2024/01/11 09:35:18;;;;;;;3.60;1.30;;;;;;;25.83;22.75;96743.06;6156622;23;20067;-27
2024/01/11 09:37:46;;;;;;;3.30;1.52;;;;;;;26.25;22.21;96738.78;6157249;23;20025;-27
2024/01/11 09:50:17;;;;;;;2.60;1.55;;;;;;;25.72;22.86;96740.38;6155695;23;20036;-28
2024/01/11 10:06:10;;;;;;;3.15;2.05;;;;;;;14.88;40.60;96716.38;6156678;23;20060;-27
2024/01/11 10:22:28;;;;;;;21.98;13.43;;;;;;;13.44;45.28;96691.75;6156685;23;20506;-28
2024/01/11 10:35:30;;;;;;;6.50;4.30;;;;;;;12.79;47.24;96683.22;6156781;23;20029;-27
2024/01/11 10:51:25;;;;;;;3.95;2.90;;;;;;;12.68;47.88;96680.06;6154828;23;20076;-27
2024/01/11 11:07:19;;;;;;;4.00;2.92;;;;;;;12.41;48.99;96666.84;6156238;23;20016;-27
2024/01/11 11:23:15;;;;;;;4.78;2.90;;;;;;;12.33;49.23;96639.09;6155547;23;20450;-27
2024/01/11 11:36:17;;;;;;;9.50;4.88;;;;;;;12.22;49.81;96627.75;6156021;23;20063;-27
2024/01/11 11:52:15;;;;;;;6.53;3.97;;;;;;;11.99;50.75;96598.88;6154465;23;20036;-27
2024/01/11 12:08:07;;;;;;;5.53;3.22;;;;;;;12.12;50.68;96574.44;6155643;23;20068;-27
2024/01/11 12:10:33;;;;;;;5.10;3.00;;;;;;;12.12;50.88;96577.16;6155772;23;20001;-27
2024/01/11 12:23:17;;;;;;;4.45;2.47;;;;;;;12.07;51.13;96562.16;6155571;23;20088;-27
2024/01/11 12:52:36;;;;;;;4.40;3.20;;;;;;;12.13;51.16;96527.78;6154030;23;20109;-28
2024/01/11 13:08:28;;;;;;;3.75;2.67;;;;;;;12.02;51.58;96510.25;6155188;23;20020;-27
2024/01/11 13:24:21;;;;;;;4.63;2.40;;;;;;;12.07;50.99;96501.59;6155093;23;20450;-28
2024/01/11 13:37:39;;;;;;;4.50;2.47;;;;;;;12.42;50.17;96484.19;6155203;23;20025;-27
2024/01/11 13:53:32;;;;;;;3.08;2.03;;;;;;;12.16;50.53;96488.09;6153639;23;20028;-27
2024/01/11 14:09:24;;;;;;;5.63;3.10;;;;;;;12.42;49.78;96494.28;6154923;23;20016;-27
2024/01/11 14:25:21;;;;;;;7.88;4.40;;;;;;;12.52;49.35;96493.97;6156468;23;20396;-27
2024/01/11 14:38:19;;;;;;;12.77;6.57;;;;;;;12.61;49.43;96471.53;6156603;23;20017;-27
2024/01/11 14:54:11;;;;;;;8.45;4.93;;;;;;;12.62;49.79;96470.31;6155160;23;20032;-27
2024/01/11 15:10:05;;;;;;;4.93;3.13;;;;;;;12.57;49.52;96462.72;6155729;23;20012;-27
2024/01/11 15:25:57;;;;;;;4.32;2.80;;;;;;;12.69;49.15;96458.47;6155551;23;20019;-26
2024/01/11 15:38:59;;;;;;;7.43;4.20;;;;;;;12.55;49.68;96460.44;6155711;23;20059;-27
2024/01/11 15:54:51;;;;;;;17.20;10.40;;;;;;;12.55;50.28;96465.88;6154355;23;20028;-27
2024/01/11 16:10:44;;;;;;;18.20;11.85;;;;;;;12.59;50.07;96474.69;6155226;23;20017;-27
2024/01/11 16:26:36;;;;;;;20.15;15.73;;;;;;;12.40;49.98;96477.66;6155634;23;20017;-27
2024/01/11 16:39:43;;;;;;;12.10;10.75;;;;;;;12.42;49.85;96476.03;6155874;23;20021;-27
2024/01/11 16:55:36;;;;;;;14.73;10.38;;;;;;;12.35;49.18;96470.81;6153851;23;20095;-27
2024/01/11 17:11:27;;;;;;;14.68;8.98;;;;;;;12.23;49.26;96452.56;6155141;23;20067;-27
2024/01/11 17:27:20;;;;;;;10.02;6.80;;;;;;;12.30;48.85;96460.47;6155435;23;20048;-27
2024/01/11 17:40:24;;;;;;;8.85;5.70;;;;;;;12.27;48.44;96453.19;6155149;23;20056;-27
2024/01/11 17:56:19;;;;;;;13.32;10.70;;;;;;;12.24;48.11;96445.88;6155913;23;20075;-27
2024/01/11 18:12:12;;;;;;;12.23;7.95;;;;;;;12.04;48.41;96448.09;6156778;23;20052;-27
2024/01/11 18:41:31;;;;;;;12.23;9.63;;;;;;;11.80;48.19;96467.41;6156142;23;20064;-27
2024/01/11 18:57:24;;;;;;;7.85;5.35;;;;;;;11.80;48.02;96472.84;6155177;23;20024;-28
2024/01/11 19:13:16;;;;;;;24.08;12.77;;;;;;;11.72;48.00;96476.94;6156567;23;20060;-27
2024/01/11 19:26:34;;;;;;;16.30;8.77;;;;;;;11.73;47.83;96485.88;6155967;23;20013;-28
2024/01/11 19:42:27;;;;;;;20.90;11.88;;;;;;;11.62;47.80;96482.69;6155567;23;20017;-28
2024/01/11 19:58:19;;;;;;;14.18;8.65;;;;;;;11.61;47.82;96487.38;6154561;23;20570;-28
2024/01/11 20:14:12;;;;;;;16.38;9.82;;;;;;;11.57;47.46;96516.56;6155805;23;20017;-27
2024/01/11 20:27:17;;;;;;;9.32;5.78;;;;;;;11.47;47.30;96537.41;6155809;23;20056;-27
2024/01/11 20:43:11;;;;;;;7.97;5.00;;;;;;;11.27;47.49;96541.44;6155191;23;20474;-27
2024/01/11 20:59:02;;;;;;;5.85;3.90;;;;;;;11.41;46.75;96539.09;6154326;23;20032;-27
2024/01/11 21:14:55;;;;;;;10.07;5.40;;;;;;;11.50;46.95;96552.06;6154936;23;20059;-27
2024/01/11 21:27:59;;;;;;;8.07;3.97;;;;;;;11.46;46.42;96545.97;6157383;23;20012;-27
2024/01/11 21:43:54;;;;;;;5.70;3.50;;;;;;;11.37;46.52;96535.75;6157054;23;20016;-27
2024/01/11 21:59:47;;;;;;;9.00;5.88;;;;;;;11.33;46.09;96545.16;6155345;23;20359;-27
2024/01/11 22:15:40;;;;;;;5.93;3.70;;;;;;;11.41;45.95;96555.41;6156760;23;20020;-27
2024/01/11 22:28:38;;;;;;;6.45;3.90;;;;;;;11.11;46.44;96545.72;6156568;23;20374;-27
2024/01/11 22:44:31;;;;;;;9.10;4.53;;;;;;;11.10;46.58;96538.00;6156314;23;20017;-27
2024/01/11 23:00:25;;;;;;;7.65;4.13;;;;;;;11.06;46.23;96529.19;6155270;23;20028;-27
2024/01/11 23:16:19;;;;;;;5.45;4.07;;;;;;;11.08;46.19;96516.72;6156208;23;20017;-27
2024/01/11 23:29:20;;;;;;;8.38;4.03;;;;;;;10.98;46.54;96517.75;6156279;23;20466;-27
2024/01/11 23:31:46;;;;;;;6.57;4.22;;;;;;;10.88;46.47;96518.75;6156224;23;20080;-27
2024/01/11 23:44:33;;;;;;;7.35;4.18;;;;;;;11.04;46.05;96502.47;6155502;23;20502;-27
